sensor_id;sensor_type;location;lat;lon;timestamp;P1;durP1;ratioP1;P2;durP2;ratioP2
10896;SDS011;5501;51.176;6.470;2023-07-30T00:04:30;2.40;;;1.63;;
10896;SDS011;5501;51.176;6.470;2023-07-30T00:09:31;3.92;;;2.25;;
10896;SDS011;5501;51.176;6.470;2023-07-30T00:14:33;3.08;;;1.75;;
10896;SDS011;5501;51.176;6.470;2023-07-30T00:19:35;3.40;;;1.70;;
10896;SDS011;5501;51.176;6.470;2023-07-30T00:24:36;1.75;;;1.60;;
10896;SDS011;5501;51.176;6.470;2023-07-30T00:29:38;2.53;;;1.90;;
10896;SDS011;5501;51.176;6.470;2023-07-30T00:34:39;2.80;;;1.75;;
10896;SDS011;5501;51.176;6.470;2023-07-30T00:39:41;5.22;;;1.98;;
10896;SDS011;5501;51.176;6.470;2023-07-30T00:44:42;2.83;;;2.20;;
10896;SDS011;5501;51.176;6.470;2023-07-30T00:49:44;3.55;;;1.65;;
10896;SDS011;5501;51.176;6.470;2023-07-30T00:54:49;2.55;;;1.88;;
10896;SDS011;5501;51.176;6.470;2023-07-30T00:59:53;3.10;;;1.52;;
10896;SDS011;5501;51.176;6.470;2023-07-30T01:04:54;4.07;;;1.73;;
10896;SDS011;5501;51.176;6.470;2023-07-30T01:09:57;2.55;;;1.75;;
10896;SDS011;5501;51.176;6.470;2023-07-30T01:14:59;7.00;;;2.15;;
10896;SDS011;5501;51.176;6.470;2023-07-30T01:20:01;3.88;;;1.80;;
10896;SDS011;5501;51.176;6.470;2023-07-30T01:25:03;4.05;;;1.50;;
10896;SDS011;5501;51.176;6.470;2023-07-30T01:35:12;4.57;;;1.55;;
10896;SDS011;5501;51.176;6.470;2023-07-30T01:40:14;4.32;;;1.77;;
10896;SDS011;5501;51.176;6.470;2023-07-30T01:45:16;2.35;;;1.38;;
10896;SDS011;5501;51.176;6.470;2023-07-30T01:50:18;3.45;;;1.48;;
10896;SDS011;5501;51.176;6.470;2023-07-30T01:55:20;5.47;;;1.73;;
10896;SDS011;5501;51.176;6.470;2023-07-30T02:00:21;4.63;;;1.90;;
10896;SDS011;5501;51.176;6.470;2023-07-30T02:05:24;5.75;;;1.85;;
10896;SDS011;5501;51.176;6.470;2023-07-30T02:10:25;2.75;;;1.63;;
10896;SDS011;5501;51.176;6.470;2023-07-30T02:15:27;2.00;;;1.40;;
10896;SDS011;5501;51.176;6.470;2023-07-30T02:20:28;2.80;;;1.40;;
10896;SDS011;5501;51.176;6.470;2023-07-30T02:25:30;3.97;;;1.38;;
10896;SDS011;5501;51.176;6.470;2023-07-30T02:30:32;5.45;;;1.77;;
10896;SDS011;5501;51.176;6.470;2023-07-30T02:35:35;6.53;;;2.60;;
10896;SDS011;5501;51.176;6.470;2023-07-30T02:40:37;3.78;;;1.73;;
10896;SDS011;5501;51.176;6.470;2023-07-30T02:45:38;6.05;;;2.28;;
10896;SDS011;5501;51.176;6.470;2023-07-30T02:50:40;4.05;;;2.08;;
10896;SDS011;5501;51.176;6.470;2023-07-30T02:55:42;3.75;;;2.03;;
10896;SDS011;5501;51.176;6.470;2023-07-30T03:00:43;4.07;;;1.63;;
10896;SDS011;5501;51.176;6.470;2023-07-30T03:05:45;1.45;;;1.25;;
10896;SDS011;5501;51.176;6.470;2023-07-30T03:10:47;3.63;;;1.42;;
10896;SDS011;5501;51.176;6.470;2023-07-30T03:15:48;3.75;;;1.50;;
10896;SDS011;5501;51.176;6.470;2023-07-30T03:20:50;3.65;;;2.08;;
10896;SDS011;5501;51.176;6.470;2023-07-30T03:25:51;2.10;;;1.35;;
10896;SDS011;5501;51.176;6.470;2023-07-30T03:30:53;3.40;;;1.60;;
10896;SDS011;5501;51.176;6.470;2023-07-30T03:35:54;3.58;;;2.45;;
10896;SDS011;5501;51.176;6.470;2023-07-30T03:40:56;5.00;;;1.90;;
10896;SDS011;5501;51.176;6.470;2023-07-30T03:45:58;5.10;;;1.40;;
10896;SDS011;5501;51.176;6.470;2023-07-30T03:50:59;7.88;;;2.10;;
10896;SDS011;5501;51.176;6.470;2023-07-30T03:56:01;2.08;;;1.40;;
10896;SDS011;5501;51.176;6.470;2023-07-30T04:01:03;3.97;;;1.77;;
10896;SDS011;5501;51.176;6.470;2023-07-30T04:06:04;4.43;;;1.45;;
10896;SDS011;5501;51.176;6.470;2023-07-30T04:11:06;3.63;;;1.45;;
10896;SDS011;5501;51.176;6.470;2023-07-30T04:16:08;6.20;;;1.77;;
10896;SDS011;5501;51.176;6.470;2023-07-30T04:21:10;3.22;;;1.88;;
10896;SDS011;5501;51.176;6.470;2023-07-30T04:26:12;3.33;;;1.48;;
10896;SDS011;5501;51.176;6.470;2023-07-30T04:31:13;5.53;;;1.50;;
10896;SDS011;5501;51.176;6.470;2023-07-30T04:36:15;2.80;;;1.38;;
10896;SDS011;5501;51.176;6.470;2023-07-30T04:41:18;6.22;;;2.05;;
10896;SDS011;5501;51.176;6.470;2023-07-30T04:46:24;2.40;;;1.60;;
10896;SDS011;5501;51.176;6.470;2023-07-30T04:51:27;3.78;;;1.73;;
10896;SDS011;5501;51.176;6.470;2023-07-30T04:56:29;4.57;;;1.15;;
10896;SDS011;5501;51.176;6.470;2023-07-30T05:01:30;1.20;;;0.95;;
10896;SDS011;5501;51.176;6.470;2023-07-30T05:06:32;6.07;;;1.40;;
10896;SDS011;5501;51.176;6.470;2023-07-30T05:11:34;3.17;;;1.17;;
10896;SDS011;5501;51.176;6.470;2023-07-30T05:16:36;5.40;;;1.10;;
10896;SDS011;5501;51.176;6.470;2023-07-30T05:21:39;2.15;;;1.10;;
10896;SDS011;5501;51.176;6.470;2023-07-30T05:26:40;1.35;;;0.80;;
10896;SDS011;5501;51.176;6.470;2023-07-30T05:31:42;4.70;;;1.33;;
10896;SDS011;5501;51.176;6.470;2023-07-30T05:36:44;2.60;;;0.93;;
10896;SDS011;5501;51.176;6.470;2023-07-30T05:41:46;4.05;;;1.10;;
10896;SDS011;5501;51.176;6.470;2023-07-30T05:46:47;1.35;;;0.90;;
10896;SDS011;5501;51.176;6.470;2023-07-30T05:51:49;1.25;;;0.80;;
10896;SDS011;5501;51.176;6.470;2023-07-30T05:56:50;2.40;;;1.08;;
10896;SDS011;5501;51.176;6.470;2023-07-30T06:01:52;2.67;;;1.10;;
10896;SDS011;5501;51.176;6.470;2023-07-30T06:06:54;0.75;;;0.75;;
10896;SDS011;5501;51.176;6.470;2023-07-30T06:11:56;6.13;;;1.52;;
10896;SDS011;5501;51.176;6.470;2023-07-30T06:16:58;5.75;;;0.88;;
10896;SDS011;5501;51.176;6.470;2023-07-30T06:22:00;2.58;;;0.82;;
10896;SDS011;5501;51.176;6.470;2023-07-30T06:27:02;5.32;;;1.20;;
10896;SDS011;5501;51.176;6.470;2023-07-30T06:32:04;2.65;;;1.17;;
10896;SDS011;5501;51.176;6.470;2023-07-30T06:37:06;6.20;;;1.20;;
10896;SDS011;5501;51.176;6.470;2023-07-30T06:42:07;2.33;;;1.13;;
10896;SDS011;5501;51.176;6.470;2023-07-30T06:47:09;2.92;;;1.05;;
10896;SDS011;5501;51.176;6.470;2023-07-30T06:52:11;9.20;;;1.60;;
10896;SDS011;5501;51.176;6.470;2023-07-30T06:57:13;4.55;;;1.13;;
10896;SDS011;5501;51.176;6.470;2023-07-30T07:02:14;3.15;;;1.25;;
10896;SDS011;5501;51.176;6.470;2023-07-30T07:07:16;5.75;;;1.40;;
10896;SDS011;5501;51.176;6.470;2023-07-30T07:12:17;2.17;;;1.13;;
10896;SDS011;5501;51.176;6.470;2023-07-30T07:17:19;4.45;;;1.80;;
10896;SDS011;5501;51.176;6.470;2023-07-30T07:22:20;3.58;;;1.40;;
10896;SDS011;5501;51.176;6.470;2023-07-30T07:27:22;5.20;;;1.48;;
10896;SDS011;5501;51.176;6.470;2023-07-30T07:32:26;5.30;;;1.60;;
10896;SDS011;5501;51.176;6.470;2023-07-30T07:37:28;4.05;;;1.63;;
10896;SDS011;5501;51.176;6.470;2023-07-30T07:42:30;6.03;;;1.70;;
10896;SDS011;5501;51.176;6.470;2023-07-30T07:47:31;5.50;;;1.50;;
10896;SDS011;5501;51.176;6.470;2023-07-30T07:52:33;3.78;;;1.73;;
10896;SDS011;5501;51.176;6.470;2023-07-30T07:57:35;5.32;;;1.65;;
10896;SDS011;5501;51.176;6.470;2023-07-30T08:02:39;6.88;;;1.67;;
10896;SDS011;5501;51.176;6.470;2023-07-30T08:07:40;5.63;;;1.67;;
10896;SDS011;5501;51.176;6.470;2023-07-30T08:12:42;6.90;;;2.00;;
10896;SDS011;5501;51.176;6.470;2023-07-30T08:17:44;5.38;;;1.60;;
10896;SDS011;5501;51.176;6.470;2023-07-30T08:22:45;4.95;;;1.45;;
10896;SDS011;5501;51.176;6.470;2023-07-30T08:27:47;6.38;;;1.92;;
10896;SDS011;5501;51.176;6.470;2023-07-30T08:32:48;6.50;;;1.70;;
10896;SDS011;5501;51.176;6.470;2023-07-30T08:37:50;2.70;;;1.17;;
10896;SDS011;5501;51.176;6.470;2023-07-30T08:42:52;4.30;;;1.50;;
10896;SDS011;5501;51.176;6.470;2023-07-30T08:47:54;4.82;;;1.95;;
10896;SDS011;5501;51.176;6.470;2023-07-30T08:52:55;4.90;;;1.92;;
10896;SDS011;5501;51.176;6.470;2023-07-30T08:58:03;4.95;;;1.33;;
10896;SDS011;5501;51.176;6.470;2023-07-30T09:03:06;4.05;;;1.65;;
10896;SDS011;5501;51.176;6.470;2023-07-30T09:08:09;5.10;;;1.88;;
10896;SDS011;5501;51.176;6.470;2023-07-30T09:13:11;3.38;;;1.20;;
10896;SDS011;5501;51.176;6.470;2023-07-30T09:18:21;5.50;;;1.60;;
10896;SDS011;5501;51.176;6.470;2023-07-30T09:23:22;4.65;;;1.38;;
10896;SDS011;5501;51.176;6.470;2023-07-30T09:28:30;4.18;;;1.25;;
10896;SDS011;5501;51.176;6.470;2023-07-30T09:33:33;6.60;;;1.40;;
10896;SDS011;5501;51.176;6.470;2023-07-30T09:38:39;2.45;;;1.10;;
10896;SDS011;5501;51.176;6.470;2023-07-30T09:43:41;6.20;;;1.60;;
10896;SDS011;5501;51.176;6.470;2023-07-30T09:48:43;4.55;;;1.60;;
10896;SDS011;5501;51.176;6.470;2023-07-30T09:53:44;8.57;;;1.50;;
10896;SDS011;5501;51.176;6.470;2023-07-30T09:58:46;4.18;;;1.17;;
10896;SDS011;5501;51.176;6.470;2023-07-30T10:03:48;6.68;;;1.45;;
10896;SDS011;5501;51.176;6.470;2023-07-30T10:08:50;4.53;;;1.13;;
10896;SDS011;5501;51.176;6.470;2023-07-30T10:13:54;6.38;;;1.30;;
10896;SDS011;5501;51.176;6.470;2023-07-30T10:18:57;2.50;;;1.30;;
10896;SDS011;5501;51.176;6.470;2023-07-30T10:24:03;5.25;;;1.58;;
10896;SDS011;5501;51.176;6.470;2023-07-30T10:29:12;3.92;;;1.40;;
10896;SDS011;5501;51.176;6.470;2023-07-30T10:34:18;1.83;;;1.20;;
10896;SDS011;5501;51.176;6.470;2023-07-30T10:39:21;3.72;;;1.15;;
10896;SDS011;5501;51.176;6.470;2023-07-30T10:44:28;4.97;;;1.27;;
10896;SDS011;5501;51.176;6.470;2023-07-30T10:49:38;2.15;;;0.90;;
10896;SDS011;5501;51.176;6.470;2023-07-30T10:54:42;2.67;;;1.20;;
10896;SDS011;5501;51.176;6.470;2023-07-30T10:59:43;2.65;;;1.15;;
10896;SDS011;5501;51.176;6.470;2023-07-30T11:04:45;6.43;;;1.17;;
10896;SDS011;5501;51.176;6.470;2023-07-30T11:09:47;2.55;;;1.13;;
10896;SDS011;5501;51.176;6.470;2023-07-30T11:15:02;4.25;;;1.40;;
10896;SDS011;5501;51.176;6.470;2023-07-30T11:20:05;2.17;;;0.90;;
10896;SDS011;5501;51.176;6.470;2023-07-30T11:25:15;3.40;;;1.95;;
10896;SDS011;5501;51.176;6.470;2023-07-30T11:30:18;2.17;;;1.30;;
10896;SDS011;5501;51.176;6.470;2023-07-30T11:35:19;2.42;;;1.20;;
10896;SDS011;5501;51.176;6.470;2023-07-30T11:40:21;2.50;;;1.00;;
10896;SDS011;5501;51.176;6.470;2023-07-30T11:45:23;2.90;;;1.23;;
10896;SDS011;5501;51.176;6.470;2023-07-30T11:50:25;3.72;;;0.95;;
10896;SDS011;5501;51.176;6.470;2023-07-30T11:55:27;2.17;;;1.00;;
10896;SDS011;5501;51.176;6.470;2023-07-30T12:00:40;7.18;;;1.15;;
10896;SDS011;5501;51.176;6.470;2023-07-30T12:05:42;0.65;;;0.40;;
10896;SDS011;5501;51.176;6.470;2023-07-30T12:10:46;3.97;;;0.90;;
10896;SDS011;5501;51.176;6.470;2023-07-30T12:15:53;1.70;;;0.80;;
10896;SDS011;5501;51.176;6.470;2023-07-30T12:20:55;5.57;;;0.90;;
10896;SDS011;5501;51.176;6.470;2023-07-30T12:25:57;3.22;;;0.90;;
10896;SDS011;5501;51.176;6.470;2023-07-30T12:30:59;2.65;;;1.00;;
10896;SDS011;5501;51.176;6.470;2023-07-30T12:36:01;1.90;;;0.98;;
10896;SDS011;5501;51.176;6.470;2023-07-30T12:41:02;3.10;;;1.27;;
10896;SDS011;5501;51.176;6.470;2023-07-30T12:46:04;3.47;;;1.02;;
10896;SDS011;5501;51.176;6.470;2023-07-30T12:51:06;3.90;;;1.35;;
10896;SDS011;5501;51.176;6.470;2023-07-30T12:56:07;3.65;;;2.03;;
10896;SDS011;5501;51.176;6.470;2023-07-30T13:01:09;2.60;;;0.80;;
10896;SDS011;5501;51.176;6.470;2023-07-30T13:06:11;5.45;;;1.35;;
10896;SDS011;5501;51.176;6.470;2023-07-30T13:11:12;5.25;;;1.00;;
10896;SDS011;5501;51.176;6.470;2023-07-30T13:16:14;6.13;;;1.30;;
10896;SDS011;5501;51.176;6.470;2023-07-30T13:21:16;2.80;;;0.93;;
10896;SDS011;5501;51.176;6.470;2023-07-30T13:26:17;3.55;;;1.40;;
10896;SDS011;5501;51.176;6.470;2023-07-30T13:31:20;3.08;;;1.05;;
10896;SDS011;5501;51.176;6.470;2023-07-30T13:36:21;3.22;;;1.15;;
10896;SDS011;5501;51.176;6.470;2023-07-30T13:41:23;2.05;;;1.15;;
10896;SDS011;5501;51.176;6.470;2023-07-30T13:46:25;7.10;;;0.90;;
10896;SDS011;5501;51.176;6.470;2023-07-30T13:51:26;2.50;;;0.98;;
10896;SDS011;5501;51.176;6.470;2023-07-30T13:56:33;2.17;;;0.90;;
10896;SDS011;5501;51.176;6.470;2023-07-30T14:01:35;2.85;;;1.02;;
10896;SDS011;5501;51.176;6.470;2023-07-30T14:06:37;2.28;;;1.08;;
10896;SDS011;5501;51.176;6.470;2023-07-30T14:11:39;1.45;;;1.08;;
10896;SDS011;5501;51.176;6.470;2023-07-30T14:16:44;2.58;;;1.20;;
10896;SDS011;5501;51.176;6.470;2023-07-30T14:21:48;1.20;;;0.93;;
10896;SDS011;5501;51.176;6.470;2023-07-30T14:26:50;2.75;;;1.05;;
10896;SDS011;5501;51.176;6.470;2023-07-30T14:31:51;2.28;;;1.00;;
10896;SDS011;5501;51.176;6.470;2023-07-30T14:36:53;2.95;;;0.88;;
10896;SDS011;5501;51.176;6.470;2023-07-30T14:41:55;1.83;;;0.77;;
10896;SDS011;5501;51.176;6.470;2023-07-30T14:46:56;2.50;;;1.15;;
10896;SDS011;5501;51.176;6.470;2023-07-30T14:51:59;1.65;;;1.00;;
10896;SDS011;5501;51.176;6.470;2023-07-30T14:57:01;1.13;;;0.88;;
10896;SDS011;5501;51.176;6.470;2023-07-30T15:02:02;3.95;;;1.10;;
10896;SDS011;5501;51.176;6.470;2023-07-30T15:07:04;4.63;;;1.10;;
10896;SDS011;5501;51.176;6.470;2023-07-30T15:12:06;3.65;;;1.10;;
10896;SDS011;5501;51.176;6.470;2023-07-30T15:17:10;2.90;;;1.10;;
10896;SDS011;5501;51.176;6.470;2023-07-30T15:22:11;1.95;;;1.17;;
10896;SDS011;5501;51.176;6.470;2023-07-30T15:27:14;5.40;;;1.35;;
10896;SDS011;5501;51.176;6.470;2023-07-30T15:32:16;2.55;;;1.17;;
10896;SDS011;5501;51.176;6.470;2023-07-30T15:37:18;1.70;;;0.90;;
10896;SDS011;5501;51.176;6.470;2023-07-30T15:42:20;3.00;;;1.02;;
10896;SDS011;5501;51.176;6.470;2023-07-30T15:47:21;2.45;;;1.08;;
10896;SDS011;5501;51.176;6.470;2023-07-30T15:52:23;4.30;;;1.15;;
10896;SDS011;5501;51.176;6.470;2023-07-30T15:57:24;3.90;;;1.20;;
10896;SDS011;5501;51.176;6.470;2023-07-30T16:02:28;2.20;;;1.05;;
10896;SDS011;5501;51.176;6.470;2023-07-30T16:07:30;2.58;;;1.30;;
10896;SDS011;5501;51.176;6.470;2023-07-30T16:12:32;2.55;;;0.90;;
10896;SDS011;5501;51.176;6.470;2023-07-30T16:17:33;1.90;;;1.05;;
10896;SDS011;5501;51.176;6.470;2023-07-30T16:22:35;2.00;;;1.08;;
10896;SDS011;5501;51.176;6.470;2023-07-30T16:27:38;1.80;;;1.00;;
10896;SDS011;5501;51.176;6.470;2023-07-30T16:32:40;0.85;;;0.70;;
10896;SDS011;5501;51.176;6.470;2023-07-30T16:37:43;2.60;;;1.10;;
10896;SDS011;5501;51.176;6.470;2023-07-30T16:42:46;2.45;;;0.93;;
10896;SDS011;5501;51.176;6.470;2023-07-30T16:47:47;2.95;;;1.58;;
10896;SDS011;5501;51.176;6.470;2023-07-30T16:52:49;5.68;;;1.30;;
10896;SDS011;5501;51.176;6.470;2023-07-30T16:57:51;7.38;;;1.38;;
10896;SDS011;5501;51.176;6.470;2023-07-30T17:02:53;3.30;;;1.20;;
10896;SDS011;5501;51.176;6.470;2023-07-30T17:07:55;1.88;;;1.20;;
10896;SDS011;5501;51.176;6.470;2023-07-30T17:12:57;2.78;;;1.30;;
10896;SDS011;5501;51.176;6.470;2023-07-30T17:17:58;3.83;;;1.30;;
10896;SDS011;5501;51.176;6.470;2023-07-30T17:23:00;2.05;;;1.20;;
10896;SDS011;5501;51.176;6.470;2023-07-30T17:28:01;1.98;;;1.33;;
10896;SDS011;5501;51.176;6.470;2023-07-30T17:33:05;1.38;;;0.95;;
10896;SDS011;5501;51.176;6.470;2023-07-30T17:38:07;3.45;;;1.17;;
10896;SDS011;5501;51.176;6.470;2023-07-30T17:43:09;3.38;;;1.65;;
10896;SDS011;5501;51.176;6.470;2023-07-30T17:48:11;4.72;;;1.80;;
10896;SDS011;5501;51.176;6.470;2023-07-30T17:53:12;2.22;;;1.42;;
10896;SDS011;5501;51.176;6.470;2023-07-30T17:58:14;4.38;;;1.55;;
10896;SDS011;5501;51.176;6.470;2023-07-30T18:03:15;2.50;;;1.33;;
10896;SDS011;5501;51.176;6.470;2023-07-30T18:08:17;4.53;;;1.70;;
10896;SDS011;5501;51.176;6.470;2023-07-30T18:13:19;4.65;;;1.67;;
10896;SDS011;5501;51.176;6.470;2023-07-30T18:18:21;5.88;;;2.05;;
10896;SDS011;5501;51.176;6.470;2023-07-30T18:23:24;2.65;;;1.55;;
10896;SDS011;5501;51.176;6.470;2023-07-30T18:28:26;4.45;;;1.40;;
10896;SDS011;5501;51.176;6.470;2023-07-30T18:33:28;1.55;;;1.23;;
10896;SDS011;5501;51.176;6.470;2023-07-30T18:38:29;3.90;;;1.50;;
10896;SDS011;5501;51.176;6.470;2023-07-30T18:43:34;3.60;;;1.48;;
10896;SDS011;5501;51.176;6.470;2023-07-30T18:48:36;3.83;;;1.63;;
10896;SDS011;5501;51.176;6.470;2023-07-30T18:53:37;2.65;;;1.38;;
10896;SDS011;5501;51.176;6.470;2023-07-30T18:58:39;4.18;;;1.85;;
10896;SDS011;5501;51.176;6.470;2023-07-30T19:03:40;3.15;;;1.60;;
10896;SDS011;5501;51.176;6.470;2023-07-30T19:08:42;2.42;;;1.50;;
10896;SDS011;5501;51.176;6.470;2023-07-30T19:13:43;2.78;;;1.13;;
10896;SDS011;5501;51.176;6.470;2023-07-30T19:18:45;2.13;;;1.50;;
10896;SDS011;5501;51.176;6.470;2023-07-30T19:23:47;4.15;;;1.73;;
10896;SDS011;5501;51.176;6.470;2023-07-30T19:28:48;2.92;;;1.50;;
10896;SDS011;5501;51.176;6.470;2023-07-30T19:33:50;2.17;;;1.60;;
10896;SDS011;5501;51.176;6.470;2023-07-30T19:38:52;3.08;;;1.42;;
10896;SDS011;5501;51.176;6.470;2023-07-30T19:43:53;4.40;;;1.90;;
10896;SDS011;5501;51.176;6.470;2023-07-30T19:48:55;10.63;;;1.65;;
10896;SDS011;5501;51.176;6.470;2023-07-30T19:53:57;12.82;;;1.70;;
10896;SDS011;5501;51.176;6.470;2023-07-30T19:58:59;2.88;;;1.77;;
10896;SDS011;5501;51.176;6.470;2023-07-30T20:04:01;1.77;;;1.63;;
10896;SDS011;5501;51.176;6.470;2023-07-30T20:09:02;4.55;;;2.00;;
10896;SDS011;5501;51.176;6.470;2023-07-30T20:14:04;2.78;;;1.63;;
10896;SDS011;5501;51.176;6.470;2023-07-30T20:19:07;5.22;;;2.13;;
10896;SDS011;5501;51.176;6.470;2023-07-30T20:24:09;4.82;;;1.77;;
10896;SDS011;5501;51.176;6.470;2023-07-30T20:29:11;3.83;;;1.75;;
10896;SDS011;5501;51.176;6.470;2023-07-30T20:34:12;4.68;;;2.03;;
10896;SDS011;5501;51.176;6.470;2023-07-30T20:39:14;5.10;;;2.33;;
10896;SDS011;5501;51.176;6.470;2023-07-30T20:44:15;5.95;;;2.20;;
10896;SDS011;5501;51.176;6.470;2023-07-30T20:49:17;3.88;;;2.17;;
10896;SDS011;5501;51.176;6.470;2023-07-30T20:54:18;3.63;;;2.17;;
10896;SDS011;5501;51.176;6.470;2023-07-30T20:59:20;2.72;;;1.98;;
10896;SDS011;5501;51.176;6.470;2023-07-30T21:04:22;3.17;;;1.90;;
10896;SDS011;5501;51.176;6.470;2023-07-30T21:09:23;6.53;;;2.25;;
10896;SDS011;5501;51.176;6.470;2023-07-30T21:14:25;6.82;;;2.25;;
10896;SDS011;5501;51.176;6.470;2023-07-30T21:19:26;3.53;;;2.03;;
10896;SDS011;5501;51.176;6.470;2023-07-30T21:24:28;4.90;;;2.22;;
10896;SDS011;5501;51.176;6.470;2023-07-30T21:29:30;4.75;;;1.83;;
10896;SDS011;5501;51.176;6.470;2023-07-30T21:34:31;5.38;;;2.22;;
10896;SDS011;5501;51.176;6.470;2023-07-30T21:39:33;4.80;;;1.88;;
10896;SDS011;5501;51.176;6.470;2023-07-30T21:44:34;2.20;;;2.00;;
10896;SDS011;5501;51.176;6.470;2023-07-30T21:49:36;5.00;;;2.08;;
10896;SDS011;5501;51.176;6.470;2023-07-30T21:54:38;8.77;;;2.50;;
10896;SDS011;5501;51.176;6.470;2023-07-30T21:59:39;5.50;;;2.25;;
10896;SDS011;5501;51.176;6.470;2023-07-30T22:04:41;6.78;;;1.83;;
10896;SDS011;5501;51.176;6.470;2023-07-30T22:09:42;3.55;;;2.10;;
10896;SDS011;5501;51.176;6.470;2023-07-30T22:14:44;5.63;;;2.40;;
10896;SDS011;5501;51.176;6.470;2023-07-30T22:19:46;3.20;;;2.30;;
10896;SDS011;5501;51.176;6.470;2023-07-30T22:24:47;4.88;;;2.60;;
10896;SDS011;5501;51.176;6.470;2023-07-30T22:29:49;3.78;;;2.05;;
10896;SDS011;5501;51.176;6.470;2023-07-30T22:34:50;4.45;;;2.10;;
10896;SDS011;5501;51.176;6.470;2023-07-30T22:39:52;5.93;;;2.13;;
10896;SDS011;5501;51.176;6.470;2023-07-30T22:44:53;4.25;;;2.22;;
10896;SDS011;5501;51.176;6.470;2023-07-30T22:49:55;6.50;;;2.50;;
10896;SDS011;5501;51.176;6.470;2023-07-30T22:54:56;5.05;;;2.60;;
10896;SDS011;5501;51.176;6.470;2023-07-30T22:59:58;6.80;;;2.83;;
10896;SDS011;5501;51.176;6.470;2023-07-30T23:04:59;7.80;;;3.40;;
10896;SDS011;5501;51.176;6.470;2023-07-30T23:10:01;4.28;;;2.13;;
10896;SDS011;5501;51.176;6.470;2023-07-30T23:15:03;6.90;;;2.50;;
10896;SDS011;5501;51.176;6.470;2023-07-30T23:20:04;5.63;;;2.40;;
10896;SDS011;5501;51.176;6.470;2023-07-30T23:25:06;4.72;;;2.53;;
10896;SDS011;5501;51.176;6.470;2023-07-30T23:30:08;3.85;;;2.20;;
10896;SDS011;5501;51.176;6.470;2023-07-30T23:35:10;8.27;;;3.28;;
10896;SDS011;5501;51.176;6.470;2023-07-30T23:40:12;7.30;;;2.42;;
10896;SDS011;5501;51.176;6.470;2023-07-30T23:45:13;6.97;;;3.00;;
10896;SDS011;5501;51.176;6.470;2023-07-30T23:50:18;5.97;;;2.55;;
10896;SDS011;5501;51.176;6.470;2023-07-30T23:55:20;9.25;;;3.17;;
